sensor_id;sensor_type;location;lat;lon;timestamp;P1;durP1;ratioP1;P2;durP2;ratioP2
1048;SDS011;513;51.444;7.196;2023-08-06T00:02:02;7.20;;;4.57;;
1048;SDS011;513;51.444;7.196;2023-08-06T00:04:29;6.57;;;4.37;;
1048;SDS011;513;51.444;7.196;2023-08-06T00:06:56;6.07;;;4.20;;
1048;SDS011;513;51.444;7.196;2023-08-06T00:09:23;6.15;;;4.40;;
1048;SDS011;513;51.444;7.196;2023-08-06T00:11:50;6.05;;;4.40;;
1048;SDS011;513;51.444;7.196;2023-08-06T00:14:17;4.90;;;4.13;;
1048;SDS011;513;51.444;7.196;2023-08-06T00:16:46;6.65;;;4.07;;
1048;SDS011;513;51.444;7.196;2023-08-06T00:19:13;7.10;;;4.35;;
1048;SDS011;513;51.444;7.196;2023-08-06T00:21:40;5.38;;;4.20;;
1048;SDS011;513;51.444;7.196;2023-08-06T00:24:07;7.82;;;5.03;;
1048;SDS011;513;51.444;7.196;2023-08-06T00:26:34;5.30;;;4.50;;
1048;SDS011;513;51.444;7.196;2023-08-06T00:29:01;7.85;;;4.70;;
1048;SDS011;513;51.444;7.196;2023-08-06T00:31:28;6.88;;;4.70;;
1048;SDS011;513;51.444;7.196;2023-08-06T00:33:56;6.68;;;4.70;;
1048;SDS011;513;51.444;7.196;2023-08-06T00:36:23;7.32;;;4.45;;
1048;SDS011;513;51.444;7.196;2023-08-06T00:38:50;5.95;;;4.38;;
1048;SDS011;513;51.444;7.196;2023-08-06T00:41:17;6.88;;;4.40;;
1048;SDS011;513;51.444;7.196;2023-08-06T00:43:44;7.80;;;4.60;;
1048;SDS011;513;51.444;7.196;2023-08-06T00:46:11;7.80;;;4.70;;
1048;SDS011;513;51.444;7.196;2023-08-06T00:48:38;7.90;;;4.43;;
1048;SDS011;513;51.444;7.196;2023-08-06T00:51:07;7.82;;;4.50;;
1048;SDS011;513;51.444;7.196;2023-08-06T00:53:35;7.75;;;4.90;;
1048;SDS011;513;51.444;7.196;2023-08-06T00:56:02;6.88;;;4.40;;
1048;SDS011;513;51.444;7.196;2023-08-06T00:58:29;7.23;;;4.53;;
1048;SDS011;513;51.444;7.196;2023-08-06T01:00:57;7.30;;;4.67;;
1048;SDS011;513;51.444;7.196;2023-08-06T01:03:24;10.80;;;4.78;;
1048;SDS011;513;51.444;7.196;2023-08-06T01:05:51;5.38;;;4.78;;
1048;SDS011;513;51.444;7.196;2023-08-06T01:08:23;6.25;;;4.40;;
1048;SDS011;513;51.444;7.196;2023-08-06T01:10:57;6.55;;;4.25;;
1048;SDS011;513;51.444;7.196;2023-08-06T01:13:28;6.20;;;4.65;;
1048;SDS011;513;51.444;7.196;2023-08-06T01:15:58;6.22;;;4.50;;
1048;SDS011;513;51.444;7.196;2023-08-06T01:18:25;6.65;;;4.35;;
1048;SDS011;513;51.444;7.196;2023-08-06T01:20:53;6.18;;;4.47;;
1048;SDS011;513;51.444;7.196;2023-08-06T01:23:20;6.10;;;4.00;;
1048;SDS011;513;51.444;7.196;2023-08-06T01:25:49;8.07;;;4.13;;
1048;SDS011;513;51.444;7.196;2023-08-06T01:28:18;5.13;;;4.50;;
1048;SDS011;513;51.444;7.196;2023-08-06T01:30:49;7.23;;;4.77;;
1048;SDS011;513;51.444;7.196;2023-08-06T01:33:19;5.88;;;4.65;;
1048;SDS011;513;51.444;7.196;2023-08-06T01:35:47;6.40;;;4.43;;
1048;SDS011;513;51.444;7.196;2023-08-06T01:38:16;5.55;;;4.35;;
1048;SDS011;513;51.444;7.196;2023-08-06T01:40:43;5.63;;;4.40;;
1048;SDS011;513;51.444;7.196;2023-08-06T01:43:10;9.48;;;4.72;;
1048;SDS011;513;51.444;7.196;2023-08-06T01:45:37;6.03;;;4.25;;
1048;SDS011;513;51.444;7.196;2023-08-06T01:48:04;5.25;;;4.28;;
1048;SDS011;513;51.444;7.196;2023-08-06T01:50:31;6.13;;;4.57;;
1048;SDS011;513;51.444;7.196;2023-08-06T01:52:58;5.70;;;4.15;;
1048;SDS011;513;51.444;7.196;2023-08-06T01:55:26;5.50;;;4.38;;
1048;SDS011;513;51.444;7.196;2023-08-06T01:57:55;6.43;;;4.60;;
1048;SDS011;513;51.444;7.196;2023-08-06T02:00:22;7.03;;;4.85;;
1048;SDS011;513;51.444;7.196;2023-08-06T02:02:49;6.67;;;4.57;;
1048;SDS011;513;51.444;7.196;2023-08-06T02:05:16;10.13;;;4.15;;
1048;SDS011;513;51.444;7.196;2023-08-06T02:07:43;5.60;;;4.07;;
1048;SDS011;513;51.444;7.196;2023-08-06T02:10:10;5.28;;;3.90;;
1048;SDS011;513;51.444;7.196;2023-08-06T02:12:38;7.22;;;4.43;;
1048;SDS011;513;51.444;7.196;2023-08-06T02:15:06;7.55;;;4.35;;
1048;SDS011;513;51.444;7.196;2023-08-06T02:17:33;6.50;;;4.43;;
1048;SDS011;513;51.444;7.196;2023-08-06T02:20:00;5.90;;;3.95;;
1048;SDS011;513;51.444;7.196;2023-08-06T02:22:27;4.82;;;4.10;;
1048;SDS011;513;51.444;7.196;2023-08-06T02:24:54;8.98;;;3.90;;
1048;SDS011;513;51.444;7.196;2023-08-06T02:27:21;6.00;;;4.40;;
1048;SDS011;513;51.444;7.196;2023-08-06T02:29:49;5.82;;;4.15;;
1048;SDS011;513;51.444;7.196;2023-08-06T02:32:16;5.13;;;4.13;;
1048;SDS011;513;51.444;7.196;2023-08-06T02:34:43;6.25;;;4.10;;
1048;SDS011;513;51.444;7.196;2023-08-06T02:37:10;7.05;;;4.53;;
1048;SDS011;513;51.444;7.196;2023-08-06T02:39:37;6.30;;;4.10;;
1048;SDS011;513;51.444;7.196;2023-08-06T02:42:05;6.95;;;4.65;;
1048;SDS011;513;51.444;7.196;2023-08-06T02:44:32;6.03;;;4.22;;
1048;SDS011;513;51.444;7.196;2023-08-06T02:47:01;5.95;;;4.35;;
1048;SDS011;513;51.444;7.196;2023-08-06T02:49:28;4.93;;;4.20;;
1048;SDS011;513;51.444;7.196;2023-08-06T02:51:55;5.30;;;4.20;;
1048;SDS011;513;51.444;7.196;2023-08-06T02:54:22;7.38;;;4.03;;
1048;SDS011;513;51.444;7.196;2023-08-06T02:56:49;8.15;;;4.57;;
1048;SDS011;513;51.444;7.196;2023-08-06T02:59:16;8.55;;;5.22;;
1048;SDS011;513;51.444;7.196;2023-08-06T03:01:43;5.13;;;4.57;;
1048;SDS011;513;51.444;7.196;2023-08-06T03:04:11;6.78;;;4.72;;
1048;SDS011;513;51.444;7.196;2023-08-06T03:06:38;5.68;;;4.50;;
1048;SDS011;513;51.444;7.196;2023-08-06T03:09:05;7.88;;;4.38;;
1048;SDS011;513;51.444;7.196;2023-08-06T03:11:32;5.43;;;4.53;;
1048;SDS011;513;51.444;7.196;2023-08-06T03:13:59;8.57;;;4.80;;
1048;SDS011;513;51.444;7.196;2023-08-06T03:16:26;5.93;;;4.43;;
1048;SDS011;513;51.444;7.196;2023-08-06T03:18:53;6.78;;;4.70;;
1048;SDS011;513;51.444;7.196;2023-08-06T03:21:21;6.53;;;4.90;;
1048;SDS011;513;51.444;7.196;2023-08-06T03:23:48;7.15;;;4.40;;
1048;SDS011;513;51.444;7.196;2023-08-06T03:26:15;6.65;;;4.50;;
1048;SDS011;513;51.444;7.196;2023-08-06T03:28:42;6.68;;;4.60;;
1048;SDS011;513;51.444;7.196;2023-08-06T03:31:09;6.25;;;4.45;;
1048;SDS011;513;51.444;7.196;2023-08-06T03:33:36;6.28;;;4.35;;
1048;SDS011;513;51.444;7.196;2023-08-06T03:36:03;6.43;;;4.90;;
1048;SDS011;513;51.444;7.196;2023-08-06T03:38:32;6.22;;;4.90;;
1048;SDS011;513;51.444;7.196;2023-08-06T03:40:59;6.85;;;4.70;;
1048;SDS011;513;51.444;7.196;2023-08-06T03:43:26;4.93;;;4.40;;
1048;SDS011;513;51.444;7.196;2023-08-06T03:45:53;6.50;;;4.07;;
1048;SDS011;513;51.444;7.196;2023-08-06T03:48:20;5.18;;;4.40;;
1048;SDS011;513;51.444;7.196;2023-08-06T03:50:47;5.85;;;4.40;;
1048;SDS011;513;51.444;7.196;2023-08-06T03:53:14;5.57;;;4.53;;
1048;SDS011;513;51.444;7.196;2023-08-06T03:55:42;7.05;;;4.90;;
1048;SDS011;513;51.444;7.196;2023-08-06T03:58:09;6.80;;;4.40;;
1048;SDS011;513;51.444;7.196;2023-08-06T04:00:36;7.37;;;4.30;;
1048;SDS011;513;51.444;7.196;2023-08-06T04:03:03;6.70;;;4.70;;
1048;SDS011;513;51.444;7.196;2023-08-06T04:05:31;7.32;;;4.63;;
1048;SDS011;513;51.444;7.196;2023-08-06T04:07:58;7.07;;;4.30;;
1048;SDS011;513;51.444;7.196;2023-08-06T04:10:25;5.05;;;4.00;;
1048;SDS011;513;51.444;7.196;2023-08-06T04:12:53;6.93;;;4.78;;
1048;SDS011;513;51.444;7.196;2023-08-06T04:15:20;6.03;;;3.95;;
1048;SDS011;513;51.444;7.196;2023-08-06T04:17:47;6.90;;;4.13;;
1048;SDS011;513;51.444;7.196;2023-08-06T04:20:14;5.60;;;4.10;;
1048;SDS011;513;51.444;7.196;2023-08-06T04:22:41;5.35;;;4.47;;
1048;SDS011;513;51.444;7.196;2023-08-06T04:25:08;7.97;;;4.17;;
1048;SDS011;513;51.444;7.196;2023-08-06T04:27:36;6.33;;;3.93;;
1048;SDS011;513;51.444;7.196;2023-08-06T04:30:08;6.40;;;4.30;;
1048;SDS011;513;51.444;7.196;2023-08-06T04:32:37;4.90;;;3.97;;
1048;SDS011;513;51.444;7.196;2023-08-06T04:35:04;9.73;;;4.10;;
1048;SDS011;513;51.444;7.196;2023-08-06T04:37:31;5.43;;;4.10;;
1048;SDS011;513;51.444;7.196;2023-08-06T04:39:58;10.18;;;3.83;;
1048;SDS011;513;51.444;7.196;2023-08-06T04:42:25;6.15;;;4.20;;
1048;SDS011;513;51.444;7.196;2023-08-06T04:44:52;5.95;;;4.22;;
1048;SDS011;513;51.444;7.196;2023-08-06T04:47:20;5.70;;;4.00;;
1048;SDS011;513;51.444;7.196;2023-08-06T04:49:47;5.28;;;3.92;;
1048;SDS011;513;51.444;7.196;2023-08-06T04:52:14;5.88;;;3.85;;
1048;SDS011;513;51.444;7.196;2023-08-06T04:54:41;5.65;;;3.83;;
1048;SDS011;513;51.444;7.196;2023-08-06T04:57:08;5.10;;;3.80;;
1048;SDS011;513;51.444;7.196;2023-08-06T04:59:35;6.65;;;4.03;;
1048;SDS011;513;51.444;7.196;2023-08-06T05:02:02;6.07;;;3.80;;
1048;SDS011;513;51.444;7.196;2023-08-06T05:04:31;8.20;;;3.83;;
1048;SDS011;513;51.444;7.196;2023-08-06T05:06:58;7.10;;;4.28;;
1048;SDS011;513;51.444;7.196;2023-08-06T05:09:25;6.07;;;4.13;;
1048;SDS011;513;51.444;7.196;2023-08-06T05:11:52;6.93;;;3.72;;
1048;SDS011;513;51.444;7.196;2023-08-06T05:14:19;6.43;;;3.70;;
1048;SDS011;513;51.444;7.196;2023-08-06T05:16:46;4.93;;;3.55;;
1048;SDS011;513;51.444;7.196;2023-08-06T05:19:13;5.95;;;3.60;;
1048;SDS011;513;51.444;7.196;2023-08-06T05:21:41;6.50;;;3.50;;
1048;SDS011;513;51.444;7.196;2023-08-06T05:24:08;4.93;;;3.23;;
1048;SDS011;513;51.444;7.196;2023-08-06T05:26:35;7.07;;;3.95;;
1048;SDS011;513;51.444;7.196;2023-08-06T05:29:02;6.03;;;3.72;;
1048;SDS011;513;51.444;7.196;2023-08-06T05:31:29;5.22;;;3.38;;
1048;SDS011;513;51.444;7.196;2023-08-06T05:33:56;5.97;;;3.58;;
1048;SDS011;513;51.444;7.196;2023-08-06T05:36:23;4.88;;;3.83;;
1048;SDS011;513;51.444;7.196;2023-08-06T05:38:52;5.38;;;3.53;;
1048;SDS011;513;51.444;7.196;2023-08-06T05:41:19;5.28;;;3.15;;
1048;SDS011;513;51.444;7.196;2023-08-06T05:43:46;5.97;;;3.72;;
1048;SDS011;513;51.444;7.196;2023-08-06T05:46:13;6.15;;;3.45;;
1048;SDS011;513;51.444;7.196;2023-08-06T05:48:40;5.57;;;3.45;;
1048;SDS011;513;51.444;7.196;2023-08-06T05:51:07;4.68;;;3.45;;
1048;SDS011;513;51.444;7.196;2023-08-06T05:53:34;4.60;;;3.33;;
1048;SDS011;513;51.444;7.196;2023-08-06T05:56:02;5.23;;;3.20;;
1048;SDS011;513;51.444;7.196;2023-08-06T05:58:29;3.72;;;3.10;;
1048;SDS011;513;51.444;7.196;2023-08-06T06:00:56;6.30;;;3.50;;
1048;SDS011;513;51.444;7.196;2023-08-06T06:03:23;7.95;;;3.28;;
1048;SDS011;513;51.444;7.196;2023-08-06T06:05:50;5.23;;;3.37;;
1048;SDS011;513;51.444;7.196;2023-08-06T06:08:17;6.40;;;3.33;;
1048;SDS011;513;51.444;7.196;2023-08-06T06:10:44;5.40;;;3.28;;
1048;SDS011;513;51.444;7.196;2023-08-06T06:13:12;5.82;;;3.65;;
1048;SDS011;513;51.444;7.196;2023-08-06T06:15:39;5.35;;;3.10;;
1048;SDS011;513;51.444;7.196;2023-08-06T06:18:06;7.57;;;3.10;;
1048;SDS011;513;51.444;7.196;2023-08-06T06:20:33;4.88;;;2.92;;
1048;SDS011;513;51.444;7.196;2023-08-06T06:23:00;6.03;;;2.80;;
1048;SDS011;513;51.444;7.196;2023-08-06T06:25:27;5.03;;;2.83;;
1048;SDS011;513;51.444;7.196;2023-08-06T06:27:54;4.50;;;2.97;;
1048;SDS011;513;51.444;7.196;2023-08-06T06:30:23;4.90;;;2.70;;
1048;SDS011;513;51.444;7.196;2023-08-06T06:32:50;5.15;;;2.90;;
1048;SDS011;513;51.444;7.196;2023-08-06T06:35:17;8.03;;;3.10;;
1048;SDS011;513;51.444;7.196;2023-08-06T06:37:44;4.13;;;2.97;;
1048;SDS011;513;51.444;7.196;2023-08-06T06:40:11;5.07;;;2.60;;
1048;SDS011;513;51.444;7.196;2023-08-06T06:42:38;5.00;;;2.60;;
1048;SDS011;513;51.444;7.196;2023-08-06T06:45:05;6.00;;;3.00;;
1048;SDS011;513;51.444;7.196;2023-08-06T06:47:34;4.10;;;2.55;;
1048;SDS011;513;51.444;7.196;2023-08-06T06:50:00;5.10;;;2.45;;
1048;SDS011;513;51.444;7.196;2023-08-06T06:52:27;5.32;;;2.65;;
1048;SDS011;513;51.444;7.196;2023-08-06T06:54:54;4.25;;;2.50;;
1048;SDS011;513;51.444;7.196;2023-08-06T06:57:21;5.65;;;2.65;;
1048;SDS011;513;51.444;7.196;2023-08-06T06:59:48;4.40;;;2.65;;
1048;SDS011;513;51.444;7.196;2023-08-06T07:02:15;4.05;;;2.30;;
1048;SDS011;513;51.444;7.196;2023-08-06T07:04:44;4.50;;;2.38;;
1048;SDS011;513;51.444;7.196;2023-08-06T07:07:11;5.53;;;2.70;;
1048;SDS011;513;51.444;7.196;2023-08-06T07:09:38;3.30;;;2.40;;
1048;SDS011;513;51.444;7.196;2023-08-06T07:12:05;5.88;;;2.30;;
1048;SDS011;513;51.444;7.196;2023-08-06T07:14:32;5.35;;;2.22;;
1048;SDS011;513;51.444;7.196;2023-08-06T07:16:59;4.47;;;2.75;;
1048;SDS011;513;51.444;7.196;2023-08-06T07:19:26;5.53;;;2.40;;
1048;SDS011;513;51.444;7.196;2023-08-06T07:21:55;5.97;;;2.28;;
1048;SDS011;513;51.444;7.196;2023-08-06T07:24:22;4.00;;;2.30;;
1048;SDS011;513;51.444;7.196;2023-08-06T07:26:49;3.78;;;2.20;;
1048;SDS011;513;51.444;7.196;2023-08-06T07:29:17;5.03;;;2.65;;
1048;SDS011;513;51.444;7.196;2023-08-06T07:31:47;4.32;;;2.25;;
1048;SDS011;513;51.444;7.196;2023-08-06T07:34:15;4.63;;;2.38;;
1048;SDS011;513;51.444;7.196;2023-08-06T07:36:43;3.03;;;2.20;;
1048;SDS011;513;51.444;7.196;2023-08-06T07:39:11;5.27;;;2.50;;
1048;SDS011;513;51.444;7.196;2023-08-06T07:41:38;4.25;;;2.70;;
1048;SDS011;513;51.444;7.196;2023-08-06T07:44:06;3.47;;;2.08;;
1048;SDS011;513;51.444;7.196;2023-08-06T07:46:33;5.00;;;2.33;;
1048;SDS011;513;51.444;7.196;2023-08-06T07:49:00;4.72;;;2.20;;
1048;SDS011;513;51.444;7.196;2023-08-06T07:51:27;4.00;;;2.30;;
1048;SDS011;513;51.444;7.196;2023-08-06T07:53:54;4.10;;;2.22;;
1048;SDS011;513;51.444;7.196;2023-08-06T07:56:22;5.72;;;2.47;;
1048;SDS011;513;51.444;7.196;2023-08-06T07:58:49;3.97;;;2.22;;
1048;SDS011;513;51.444;7.196;2023-08-06T08:01:16;3.90;;;2.58;;
1048;SDS011;513;51.444;7.196;2023-08-06T08:03:43;4.57;;;2.28;;
1048;SDS011;513;51.444;7.196;2023-08-06T08:06:11;4.85;;;2.42;;
1048;SDS011;513;51.444;7.196;2023-08-06T08:08:38;4.60;;;2.55;;
1048;SDS011;513;51.444;7.196;2023-08-06T08:11:05;2.80;;;2.00;;
1048;SDS011;513;51.444;7.196;2023-08-06T08:13:33;3.80;;;2.70;;
1048;SDS011;513;51.444;7.196;2023-08-06T08:16:00;4.32;;;2.58;;
1048;SDS011;513;51.444;7.196;2023-08-06T08:18:28;5.33;;;3.03;;
1048;SDS011;513;51.444;7.196;2023-08-06T08:20:56;3.78;;;2.40;;
1048;SDS011;513;51.444;7.196;2023-08-06T08:23:23;3.10;;;2.13;;
1048;SDS011;513;51.444;7.196;2023-08-06T08:25:50;3.60;;;2.30;;
1048;SDS011;513;51.444;7.196;2023-08-06T08:28:17;3.77;;;2.17;;
1048;SDS011;513;51.444;7.196;2023-08-06T08:30:45;5.22;;;2.42;;
1048;SDS011;513;51.444;7.196;2023-08-06T08:33:12;3.33;;;2.00;;
1048;SDS011;513;51.444;7.196;2023-08-06T08:35:39;3.08;;;2.08;;
1048;SDS011;513;51.444;7.196;2023-08-06T08:38:06;3.95;;;2.40;;
1048;SDS011;513;51.444;7.196;2023-08-06T08:40:33;3.88;;;2.22;;
1048;SDS011;513;51.444;7.196;2023-08-06T08:43:04;2.63;;;1.77;;
1048;SDS011;513;51.444;7.196;2023-08-06T08:45:31;4.72;;;2.03;;
1048;SDS011;513;51.444;7.196;2023-08-06T08:48:02;3.97;;;2.10;;
1048;SDS011;513;51.444;7.196;2023-08-06T08:50:29;4.25;;;1.77;;
1048;SDS011;513;51.444;7.196;2023-08-06T08:52:56;5.28;;;1.80;;
1048;SDS011;513;51.444;7.196;2023-08-06T08:55:23;4.88;;;2.28;;
1048;SDS011;513;51.444;7.196;2023-08-06T08:57:51;3.08;;;1.90;;
1048;SDS011;513;51.444;7.196;2023-08-06T09:00:18;4.07;;;2.25;;
1048;SDS011;513;51.444;7.196;2023-08-06T09:02:45;5.38;;;2.30;;
1048;SDS011;513;51.444;7.196;2023-08-06T09:05:13;3.33;;;2.47;;
1048;SDS011;513;51.444;7.196;2023-08-06T09:07:41;6.25;;;2.63;;
1048;SDS011;513;51.444;7.196;2023-08-06T09:10:10;4.20;;;2.70;;
1048;SDS011;513;51.444;7.196;2023-08-06T09:12:38;3.80;;;3.13;;
1048;SDS011;513;51.444;7.196;2023-08-06T09:15:06;3.80;;;2.88;;
1048;SDS011;513;51.444;7.196;2023-08-06T09:17:33;4.63;;;3.13;;
1048;SDS011;513;51.444;7.196;2023-08-06T09:20:08;3.97;;;3.45;;
1048;SDS011;513;51.444;7.196;2023-08-06T09:22:36;5.45;;;3.60;;
1048;SDS011;513;51.444;7.196;2023-08-06T09:25:03;6.13;;;3.90;;
1048;SDS011;513;51.444;7.196;2023-08-06T09:27:34;3.83;;;3.42;;
1048;SDS011;513;51.444;7.196;2023-08-06T09:30:02;5.22;;;3.80;;
1048;SDS011;513;51.444;7.196;2023-08-06T09:32:33;4.50;;;3.10;;
1048;SDS011;513;51.444;7.196;2023-08-06T09:35:13;4.05;;;3.60;;
1048;SDS011;513;51.444;7.196;2023-08-06T09:37:43;4.15;;;3.28;;
1048;SDS011;513;51.444;7.196;2023-08-06T09:40:25;8.40;;;3.50;;
1048;SDS011;513;51.444;7.196;2023-08-06T09:42:53;6.27;;;3.20;;
1048;SDS011;513;51.444;7.196;2023-08-06T09:45:20;4.80;;;3.35;;
1048;SDS011;513;51.444;7.196;2023-08-06T09:47:47;6.75;;;3.30;;
1048;SDS011;513;51.444;7.196;2023-08-06T09:50:15;5.45;;;3.85;;
1048;SDS011;513;51.444;7.196;2023-08-06T09:52:44;6.97;;;3.80;;
1048;SDS011;513;51.444;7.196;2023-08-06T09:55:12;6.30;;;4.05;;
1048;SDS011;513;51.444;7.196;2023-08-06T09:57:39;4.88;;;4.35;;
1048;SDS011;513;51.444;7.196;2023-08-06T10:00:07;6.85;;;4.32;;
1048;SDS011;513;51.444;7.196;2023-08-06T10:02:35;6.95;;;4.40;;
1048;SDS011;513;51.444;7.196;2023-08-06T10:05:02;6.25;;;4.70;;
1048;SDS011;513;51.444;7.196;2023-08-06T10:07:29;7.65;;;4.60;;
1048;SDS011;513;51.444;7.196;2023-08-06T10:09:58;7.90;;;5.30;;
1048;SDS011;513;51.444;7.196;2023-08-06T10:12:25;6.70;;;5.32;;
1048;SDS011;513;51.444;7.196;2023-08-06T10:14:54;6.45;;;5.00;;
1048;SDS011;513;51.444;7.196;2023-08-06T10:17:22;6.68;;;5.05;;
1048;SDS011;513;51.444;7.196;2023-08-06T10:19:49;7.30;;;5.88;;
1048;SDS011;513;51.444;7.196;2023-08-06T10:22:16;6.93;;;5.47;;
1048;SDS011;513;51.444;7.196;2023-08-06T10:24:48;7.13;;;5.03;;
1048;SDS011;513;51.444;7.196;2023-08-06T10:27:20;7.10;;;5.95;;
1048;SDS011;513;51.444;7.196;2023-08-06T10:29:47;6.13;;;5.10;;
1048;SDS011;513;51.444;7.196;2023-08-06T10:32:15;8.38;;;5.72;;
1048;SDS011;513;51.444;7.196;2023-08-06T10:34:55;6.30;;;5.07;;
1048;SDS011;513;51.444;7.196;2023-08-06T10:37:23;7.32;;;5.60;;
1048;SDS011;513;51.444;7.196;2023-08-06T10:39:50;8.15;;;5.22;;
1048;SDS011;513;51.444;7.196;2023-08-06T10:42:22;6.75;;;4.85;;
1048;SDS011;513;51.444;7.196;2023-08-06T10:45:12;5.50;;;4.60;;
1048;SDS011;513;51.444;7.196;2023-08-06T10:47:40;5.25;;;4.68;;
1048;SDS011;513;51.444;7.196;2023-08-06T10:50:07;6.57;;;5.13;;
1048;SDS011;513;51.444;7.196;2023-08-06T10:52:35;7.57;;;5.22;;
1048;SDS011;513;51.444;7.196;2023-08-06T10:55:02;14.07;;;8.10;;
1048;SDS011;513;51.444;7.196;2023-08-06T10:57:30;51.20;;;20.23;;
1048;SDS011;513;51.444;7.196;2023-08-06T10:59:57;7.88;;;5.65;;
1048;SDS011;513;51.444;7.196;2023-08-06T11:02:24;6.20;;;4.60;;
1048;SDS011;513;51.444;7.196;2023-08-06T11:04:52;6.72;;;4.80;;
1048;SDS011;513;51.444;7.196;2023-08-06T11:07:19;4.97;;;4.43;;
1048;SDS011;513;51.444;7.196;2023-08-06T11:09:49;5.30;;;4.40;;
1048;SDS011;513;51.444;7.196;2023-08-06T11:12:18;9.40;;;5.85;;
1048;SDS011;513;51.444;7.196;2023-08-06T11:14:50;5.70;;;5.00;;
1048;SDS011;513;51.444;7.196;2023-08-06T11:17:17;6.50;;;4.70;;
1048;SDS011;513;51.444;7.196;2023-08-06T11:19:44;7.60;;;4.70;;
1048;SDS011;513;51.444;7.196;2023-08-06T11:22:11;5.30;;;4.80;;
1048;SDS011;513;51.444;7.196;2023-08-06T11:24:38;5.88;;;4.95;;
1048;SDS011;513;51.444;7.196;2023-08-06T11:27:10;5.57;;;5.05;;
1048;SDS011;513;51.444;7.196;2023-08-06T11:29:37;7.35;;;6.30;;
1048;SDS011;513;51.444;7.196;2023-08-06T11:32:06;6.93;;;5.90;;
1048;SDS011;513;51.444;7.196;2023-08-06T11:34:33;6.75;;;5.68;;
1048;SDS011;513;51.444;7.196;2023-08-06T11:37:02;7.05;;;6.15;;
1048;SDS011;513;51.444;7.196;2023-08-06T11:39:30;7.30;;;6.00;;
1048;SDS011;513;51.444;7.196;2023-08-06T11:41:57;6.67;;;6.07;;
1048;SDS011;513;51.444;7.196;2023-08-06T11:44:29;7.13;;;6.43;;
1048;SDS011;513;51.444;7.196;2023-08-06T11:46:57;7.47;;;6.18;;
1048;SDS011;513;51.444;7.196;2023-08-06T11:49:40;7.35;;;6.65;;
1048;SDS011;513;51.444;7.196;2023-08-06T11:52:19;8.45;;;7.05;;
1048;SDS011;513;51.444;7.196;2023-08-06T11:54:48;8.25;;;7.43;;
1048;SDS011;513;51.444;7.196;2023-08-06T11:57:26;8.27;;;7.47;;
1048;SDS011;513;51.444;7.196;2023-08-06T11:59:53;8.73;;;7.82;;
1048;SDS011;513;51.444;7.196;2023-08-06T12:02:20;9.13;;;8.27;;
1048;SDS011;513;51.444;7.196;2023-08-06T12:05:00;8.55;;;7.75;;
1048;SDS011;513;51.444;7.196;2023-08-06T12:07:29;8.45;;;7.65;;
1048;SDS011;513;51.444;7.196;2023-08-06T12:09:57;10.35;;;9.35;;
1048;SDS011;513;51.444;7.196;2023-08-06T12:12:24;14.73;;;11.45;;
1048;SDS011;513;51.444;7.196;2023-08-06T12:14:51;7.05;;;6.38;;
1048;SDS011;513;51.444;7.196;2023-08-06T12:17:18;6.57;;;5.97;;
1048;SDS011;513;51.444;7.196;2023-08-06T12:19:46;6.63;;;5.90;;
1048;SDS011;513;51.444;7.196;2023-08-06T12:22:15;7.78;;;6.93;;
1048;SDS011;513;51.444;7.196;2023-08-06T12:24:42;7.50;;;6.80;;
1048;SDS011;513;51.444;7.196;2023-08-06T12:27:09;8.48;;;7.28;;
1048;SDS011;513;51.444;7.196;2023-08-06T12:29:36;10.23;;;8.73;;
1048;SDS011;513;51.444;7.196;2023-08-06T12:32:04;8.52;;;7.63;;
1048;SDS011;513;51.444;7.196;2023-08-06T12:34:31;8.18;;;7.38;;
1048;SDS011;513;51.444;7.196;2023-08-06T12:36:58;7.70;;;7.00;;
1048;SDS011;513;51.444;7.196;2023-08-06T12:39:26;6.47;;;5.88;;
1048;SDS011;513;51.444;7.196;2023-08-06T12:41:54;4.53;;;4.13;;
1048;SDS011;513;51.444;7.196;2023-08-06T12:44:22;2.80;;;2.37;;
1048;SDS011;513;51.444;7.196;2023-08-06T12:46:49;3.08;;;2.00;;
1048;SDS011;513;51.444;7.196;2023-08-06T12:49:16;2.97;;;2.22;;
1048;SDS011;513;51.444;7.196;2023-08-06T12:51:43;2.20;;;1.85;;
1048;SDS011;513;51.444;7.196;2023-08-06T12:54:10;1.80;;;1.70;;
1048;SDS011;513;51.444;7.196;2023-08-06T12:56:39;1.60;;;1.33;;
1048;SDS011;513;51.444;7.196;2023-08-06T12:59:06;1.30;;;1.10;;
1048;SDS011;513;51.444;7.196;2023-08-06T13:01:32;1.58;;;1.30;;
1048;SDS011;513;51.444;7.196;2023-08-06T13:03:59;1.27;;;1.17;;
1048;SDS011;513;51.444;7.196;2023-08-06T13:06:26;1.83;;;1.40;;
1048;SDS011;513;51.444;7.196;2023-08-06T13:08:53;2.30;;;1.13;;
1048;SDS011;513;51.444;7.196;2023-08-06T13:11:20;1.13;;;1.00;;
1048;SDS011;513;51.444;7.196;2023-08-06T13:13:49;1.95;;;1.00;;
1048;SDS011;513;51.444;7.196;2023-08-06T13:16:16;1.60;;;1.10;;
1048;SDS011;513;51.444;7.196;2023-08-06T13:18:43;1.90;;;1.10;;
1048;SDS011;513;51.444;7.196;2023-08-06T13:21:10;1.83;;;1.42;;
1048;SDS011;513;51.444;7.196;2023-08-06T13:23:37;2.50;;;0.93;;
1048;SDS011;513;51.444;7.196;2023-08-06T13:26:04;1.60;;;0.88;;
1048;SDS011;513;51.444;7.196;2023-08-06T13:28:31;1.37;;;1.10;;
1048;SDS011;513;51.444;7.196;2023-08-06T13:30:59;1.48;;;1.00;;
1048;SDS011;513;51.444;7.196;2023-08-06T13:33:26;3.40;;;1.20;;
1048;SDS011;513;51.444;7.196;2023-08-06T13:35:53;2.08;;;1.38;;
1048;SDS011;513;51.444;7.196;2023-08-06T13:38:20;2.37;;;1.40;;
1048;SDS011;513;51.444;7.196;2023-08-06T13:40:47;4.13;;;1.20;;
1048;SDS011;513;51.444;7.196;2023-08-06T13:43:14;1.50;;;1.40;;
1048;SDS011;513;51.444;7.196;2023-08-06T13:45:44;1.60;;;1.30;;
1048;SDS011;513;51.444;7.196;2023-08-06T13:48:12;2.00;;;1.50;;
1048;SDS011;513;51.444;7.196;2023-08-06T13:50:39;2.45;;;1.35;;
1048;SDS011;513;51.444;7.196;2023-08-06T13:53:06;2.63;;;1.40;;
1048;SDS011;513;51.444;7.196;2023-08-06T13:55:33;2.38;;;1.85;;
1048;SDS011;513;51.444;7.196;2023-08-06T13:58:00;1.92;;;1.63;;
1048;SDS011;513;51.444;7.196;2023-08-06T14:00:27;2.80;;;1.80;;
1048;SDS011;513;51.444;7.196;2023-08-06T14:02:55;2.45;;;1.77;;
1048;SDS011;513;51.444;7.196;2023-08-06T14:05:23;2.30;;;2.10;;
1048;SDS011;513;51.444;7.196;2023-08-06T14:07:50;3.00;;;2.25;;
1048;SDS011;513;51.444;7.196;2023-08-06T14:10:17;2.25;;;2.03;;
1048;SDS011;513;51.444;7.196;2023-08-06T14:12:44;3.50;;;2.70;;
1048;SDS011;513;51.444;7.196;2023-08-06T14:15:11;4.30;;;3.15;;
1048;SDS011;513;51.444;7.196;2023-08-06T14:17:38;4.82;;;3.20;;
1048;SDS011;513;51.444;7.196;2023-08-06T14:20:06;5.88;;;3.85;;
1048;SDS011;513;51.444;7.196;2023-08-06T14:22:38;4.45;;;4.00;;
1048;SDS011;513;51.444;7.196;2023-08-06T14:25:05;5.30;;;4.20;;
1048;SDS011;513;51.444;7.196;2023-08-06T14:27:32;5.30;;;4.20;;
1048;SDS011;513;51.444;7.196;2023-08-06T14:29:59;5.30;;;4.10;;
1048;SDS011;513;51.444;7.196;2023-08-06T14:32:28;7.20;;;4.63;;
1048;SDS011;513;51.444;7.196;2023-08-06T14:34:55;6.70;;;4.40;;
1048;SDS011;513;51.444;7.196;2023-08-06T14:37:22;6.70;;;5.18;;
1048;SDS011;513;51.444;7.196;2023-08-06T14:39:50;5.57;;;4.55;;
1048;SDS011;513;51.444;7.196;2023-08-06T14:42:17;6.18;;;4.80;;
1048;SDS011;513;51.444;7.196;2023-08-06T14:44:44;6.45;;;5.00;;
1048;SDS011;513;51.444;7.196;2023-08-06T14:47:11;6.82;;;5.28;;
1048;SDS011;513;51.444;7.196;2023-08-06T14:49:38;6.43;;;5.43;;
1048;SDS011;513;51.444;7.196;2023-08-06T14:52:06;5.97;;;4.88;;
1048;SDS011;513;51.444;7.196;2023-08-06T14:54:33;5.63;;;5.00;;
1048;SDS011;513;51.444;7.196;2023-08-06T14:57:01;6.85;;;5.22;;
1048;SDS011;513;51.444;7.196;2023-08-06T14:59:28;6.63;;;4.78;;
1048;SDS011;513;51.444;7.196;2023-08-06T15:01:55;7.27;;;4.80;;
1048;SDS011;513;51.444;7.196;2023-08-06T15:04:22;6.40;;;4.53;;
1048;SDS011;513;51.444;7.196;2023-08-06T15:06:49;6.63;;;4.38;;
1048;SDS011;513;51.444;7.196;2023-08-06T15:09:16;6.00;;;4.20;;
1048;SDS011;513;51.444;7.196;2023-08-06T15:11:45;4.82;;;4.25;;
1048;SDS011;513;51.444;7.196;2023-08-06T15:14:13;6.67;;;4.17;;
1048;SDS011;513;51.444;7.196;2023-08-06T15:16:40;4.60;;;3.60;;
1048;SDS011;513;51.444;7.196;2023-08-06T15:19:07;5.72;;;4.22;;
1048;SDS011;513;51.444;7.196;2023-08-06T15:21:34;5.30;;;3.85;;
1048;SDS011;513;51.444;7.196;2023-08-06T15:24:01;5.05;;;4.18;;
1048;SDS011;513;51.444;7.196;2023-08-06T15:26:28;7.25;;;4.07;;
1048;SDS011;513;51.444;7.196;2023-08-06T15:28:55;5.97;;;4.07;;
1048;SDS011;513;51.444;7.196;2023-08-06T15:31:24;5.68;;;4.28;;
1048;SDS011;513;51.444;7.196;2023-08-06T15:34:01;6.32;;;4.10;;